Muniz Freire, Brazil
Current Conditions -  °F | °C
As of 4:00 AM on Saturday 25 Oct 2014 (Local Time) from SBVT Reporting Station
Few Clouds Few Clouds  
Wind Chill: 68°   Ceiling: Unl
Heat Index: 68°   Visibility: 6mi
Dew Point: 61°   Wind: 3mph
Humidity: 78%   Direction: 340°NNW
Pressure: 29.94"   Gusts: NA
Location:  20.46°S, 41.41°W
Report Text: SBVT 250600Z 34003KT 9999 FEW020 20/16 Q1014
Loading
Personal Weather Stations






























Interactive Weather Map
Tropical Storm Tracking
New forecast layout! Learn more

10-Day Weather Forecast

Advertisements
Track Severe Weather on mobile